createdAt,value
2023-05-14T21:33:16.834Z,3.30
2023-05-14T21:36:10.269Z,2.90
2023-05-14T21:39:02.035Z,2.90
2023-05-14T21:41:53.737Z,2.80
2023-05-14T21:44:46.488Z,3.40
2023-05-14T21:47:38.331Z,3.20
2023-05-14T21:50:30.173Z,2.60
2023-05-14T21:53:24.684Z,2.60
2023-05-14T21:56:16.560Z,2.70
2023-05-14T21:59:08.309Z,2.70
2023-05-14T22:04:56.713Z,2.50
2023-05-14T22:07:48.536Z,2.20
2023-05-14T22:10:40.253Z,2.10
2023-05-14T22:13:32.072Z,2.30
2023-05-14T22:16:23.790Z,2.30
2023-05-14T22:19:16.410Z,2.50
2023-05-14T22:22:08.474Z,2.20
2023-05-14T22:25:00.341Z,2.40
2023-05-14T22:27:52.098Z,2.00
2023-05-14T22:30:43.738Z,2.20
2023-05-14T22:33:38.017Z,2.30
2023-05-14T22:36:29.835Z,2.40
2023-05-14T22:39:21.617Z,2.30
2023-05-14T22:42:14.365Z,2.40
2023-05-14T22:45:07.687Z,2.20
2023-05-14T22:47:59.381Z,2.70
2023-05-14T22:50:51.802Z,2.40
2023-05-14T22:53:43.445Z,2.40
2023-05-14T22:56:35.127Z,2.30
2023-05-14T22:59:26.775Z,2.40
2023-05-14T23:02:18.513Z,2.50
2023-05-14T23:05:12.309Z,2.50
2023-05-14T23:08:04.045Z,2.30
2023-05-14T23:10:55.750Z,2.40
2023-05-14T23:13:47.372Z,2.70
2023-05-14T23:16:39.642Z,2.50
2023-05-14T23:19:31.463Z,2.50
2023-05-14T23:22:23.247Z,2.50
2023-05-14T23:25:14.983Z,2.50
2023-05-14T23:28:06.736Z,2.30
2023-05-14T23:30:58.634Z,2.60
2023-05-14T23:36:44.391Z,2.60
2023-05-14T23:39:38.133Z,2.30
2023-05-14T23:42:29.844Z,2.20
2023-05-14T23:45:21.852Z,2.20
2023-05-14T23:48:13.579Z,2.60
2023-05-14T23:51:05.323Z,2.40
2023-05-14T23:53:58.499Z,2.50
2023-05-14T23:59:31.973Z,2.40
